CheckWX is a tool to help pilots better visualize weather data.  It is not intended as a substitute for an official pre-flight weather briefing.

04:15:56 UTC

KFLO TAF
Florence Regional Airport
Florence, South Carolina, USA
KFLO 282320Z 2900/2924 00000KT P6SM SKC FM291500 06005KT P6SM FEW150 FM292000 VRB03KT P6SM BKN090

Jan-29@
00:00 UTC

Jan-29 @ 00:00 UTC

Jan-29@
15:00 UTC

Jan-29 @ 15:00 UTC

KFLO 282320Z 2900/2924 00000KT P6SM SKC
Cloud Levels
  • Clear skies

Jan-29@
15:00 UTC

Jan-29 @ 15:00 UTC

Jan-29@
20:00 UTC

Jan-29 @ 20:00 UTC

FM291500 06005KT P6SM FEW150

From

From Standard forecast or significant change

Wind
  • 060° at 5 KTS
Cloud Levels
  • Few at 15,000' AGL

Jan-29@
20:00 UTC

Jan-29 @ 20:00 UTC

Jan-30@
00:00 UTC

Jan-30 @ 00:00 UTC

FM292000 VRB03KT P6SM BKN090

From

From Standard forecast or significant change

Wind
  • Variable at 3 KTS
Cloud Levels
  • Broken at 9,000' AGL